Terminal Aerodrome Forecast
Issued by NWS

Home | Current Version | Previous Version | Text Only | Print | Product List | Glossary On
Versions: 1 2 3 4 5 6 7 8 9 10 11 12 13 14 15
269
FTUS42 KJAX 102320
TAFVQQ
TAF
KVQQ 102320Z 1100/1124 29010KT P6SM SKC
     FM110200 25004KT P6SM SKC
     FM111400 32005KT P6SM SKC
     FM112100 24007KT P6SM SCT250=

USA.gov is the U.S. government's official web portal to all federal, state and local government web resources and services.